Time;durP1;ratioP1;P1;durP2;ratioP2;P2;SDS_P1;SDS_P2;PMS_P1;PMS_P2;Temp;Humidity;BMP_temperature;BMP_pressure;BME280_temperature;BME280_humidity;BME280_pressure;Samples;Min_cycle;Max_cycle;Signal;HPM_P1;HPM_P2
2022/02/23 00:00:50;;;;;;;2.90;0.35;;;;;;;8.54;87.64;99241.75;5081283;28;20052;-77
2022/02/23 01:23:58;;;;;;;1.73;0.47;;;;;;;5.54;100.00;99404.59;5070904;28;20597;-76
2022/02/23 01:26:24;;;;;;;4.68;0.63;;;;;;;5.40;100.00;99398.78;5052470;28;20036;-76
2022/02/23 01:28:49;;;;;;;3.65;0.30;;;;;;;5.39;100.00;99415.84;5052181;28;20024;-76
2022/02/23 01:31:15;;;;;;;4.75;0.60;;;;;;;5.16;100.00;99399.44;5052236;28;20404;-76
2022/02/23 01:33:40;;;;;;;2.55;0.82;;;;;;;5.23;100.00;99415.72;5065183;28;20472;-76
2022/02/23 01:36:06;;;;;;;2.65;0.60;;;;;;;5.27;100.00;99425.16;5078581;28;20029;-77
2022/02/23 01:38:31;;;;;;;2.55;0.40;;;;;;;5.02;100.00;99397.25;5050513;28;20036;-77
2022/02/23 01:40:56;;;;;;;3.92;0.43;;;;;;;5.14;100.00;99413.97;5054432;28;20391;-77
2022/02/23 01:43:22;;;;;;;2.47;0.60;;;;;;;5.09;100.00;99430.53;5061835;28;20130;-77
2022/02/23 01:45:47;;;;;;;5.20;0.50;;;;;;;5.12;100.00;99418.66;5089682;28;20112;-77
2022/02/23 01:48:13;;;;;;;1.23;0.40;;;;;;;5.11;100.00;99431.22;5066533;28;20029;-77
2022/02/23 01:50:39;;;;;;;3.13;0.60;;;;;;;5.16;100.00;99433.44;5070905;28;20055;-77
2022/02/23 01:53:05;;;;;;;1.73;0.40;;;;;;;5.07;100.00;99416.41;5058135;28;20403;-77
2022/02/23 01:55:31;;;;;;;3.80;0.80;;;;;;;5.16;100.00;99430.75;5052004;28;20017;-77
2022/02/23 01:57:57;;;;;;;2.35;0.80;;;;;;;5.17;100.00;99429.75;5057754;28;20020;-77
2022/02/23 02:00:23;;;;;;;2.67;0.38;;;;;;;5.14;100.00;99422.03;5056971;28;20041;-77
2022/02/23 02:02:49;;;;;;;5.28;0.70;;;;;;;5.12;100.00;99424.00;5073826;28;20043;-77
2022/02/23 02:05:15;;;;;;;3.85;0.82;;;;;;;5.03;100.00;99439.16;5072712;28;20028;-78
2022/02/23 02:07:41;;;;;;;5.15;0.85;;;;;;;5.05;100.00;99438.00;5056017;28;20025;-77
2022/02/23 02:10:08;;;;;;;2.70;0.50;;;;;;;5.01;100.00;99459.94;5050766;28;20028;-77
2022/02/23 02:12:33;;;;;;;4.47;0.73;;;;;;;4.89;100.00;99440.53;5067316;28;20450;-78
2022/02/23 02:14:59;;;;;;;4.20;0.52;;;;;;;4.84;100.00;99430.25;5065901;28;20063;-77
2022/02/23 02:17:25;;;;;;;3.65;0.55;;;;;;;4.99;100.00;99467.28;5063749;28;20032;-77
2022/02/23 02:19:51;;;;;;;6.18;0.70;;;;;;;4.94;100.00;99475.78;5054920;28;20369;-77
2022/02/23 02:22:16;;;;;;;3.20;0.70;;;;;;;4.93;100.00;99462.53;5069564;28;20046;-77
2022/02/23 02:24:41;;;;;;;4.47;0.50;;;;;;;4.88;100.00;99471.03;5064438;28;20098;-77
2022/02/23 02:27:10;;;;;;;2.10;0.50;;;;;;;4.92;100.00;99479.59;5055885;28;20107;-77
2022/02/23 02:29:36;;;;;;;2.75;0.50;;;;;;;4.87;100.00;99477.38;5059996;28;20162;-77
2022/02/23 02:32:02;;;;;;;3.78;0.40;;;;;;;5.08;100.00;99503.09;5076140;28;20030;-77
2022/02/23 02:34:29;;;;;;;7.05;0.60;;;;;;;4.92;100.00;99490.34;5066510;28;20028;-77
2022/02/23 02:36:54;;;;;;;7.57;0.90;;;;;;;4.96;100.00;99519.38;5054898;28;20448;-77
2022/02/23 02:39:21;;;;;;;6.55;0.47;;;;;;;5.03;99.87;99535.72;5055237;28;20052;-77
2022/02/23 02:41:47;;;;;;;3.38;0.50;;;;;;;4.80;100.00;99509.31;5068530;28;20021;-77
2022/02/23 02:44:13;;;;;;;8.35;0.80;;;;;;;4.88;100.00;99535.38;5074217;28;20513;-77
2022/02/23 02:46:39;;;;;;;7.97;0.82;;;;;;;4.91;100.00;99532.41;5071734;28;20395;-76
2022/02/23 02:49:05;;;;;;;3.80;0.68;;;;;;;4.83;100.00;99545.72;5056170;28;20048;-76
2022/02/23 02:51:31;;;;;;;3.10;0.57;;;;;;;4.79;100.00;99528.22;5054801;28;20098;-76
2022/02/23 02:53:56;;;;;;;4.15;0.65;;;;;;;4.88;100.00;99546.09;5060223;28;20055;-76
2022/02/23 02:56:22;;;;;;;1.52;0.60;;;;;;;4.84;99.85;99555.44;5071451;28;20302;-76
2022/02/23 02:58:52;;;;;;;6.82;1.17;;;;;;;4.86;100.00;99553.44;5054688;28;20020;-75
2022/02/23 03:01:19;;;;;;;5.43;0.70;;;;;;;4.86;100.00;99548.09;5073109;28;20024;-76
2022/02/23 03:03:44;;;;;;;2.67;0.93;;;;;;;4.77;100.00;99541.78;5058654;28;20025;-76
2022/02/23 03:06:10;;;;;;;8.27;0.95;;;;;;;4.74;100.00;99535.84;5055020;28;20535;-77
2022/02/23 03:08:35;;;;;;;4.80;0.52;;;;;;;4.77;99.69;99547.16;5073995;28;20484;-76
2022/02/23 03:11:00;;;;;;;3.97;0.70;;;;;;;4.80;99.30;99560.25;5073392;28;20135;-76
2022/02/23 03:13:26;;;;;;;5.90;0.80;;;;;;;4.93;99.65;99545.66;5062800;28;20174;-76
2022/02/23 03:15:51;;;;;;;8.10;1.05;;;;;;;4.94;99.84;99556.22;5074561;28;20032;-77
2022/02/23 03:18:16;;;;;;;5.90;1.73;;;;;;;5.05;99.81;99536.41;5066470;28;20020;-76
2022/02/23 03:20:42;;;;;;;5.57;1.10;;;;;;;5.00;99.39;99569.06;5058844;28;20032;-76
2022/02/23 03:23:07;;;;;;;4.53;1.10;;;;;;;4.84;99.79;99545.53;5064528;28;20519;-76
2022/02/23 03:25:32;;;;;;;3.00;1.33;;;;;;;4.68;100.00;99569.47;5053851;28;20479;-76
2022/02/23 03:27:58;;;;;;;11.98;2.13;;;;;;;4.27;100.00;99549.28;5055153;28;20021;-76
2022/02/23 03:30:23;;;;;;;5.10;1.20;;;;;;;4.06;100.00;99560.16;5052771;28;20076;-75
2022/02/23 03:32:48;;;;;;;3.70;1.13;;;;;;;4.13;100.00;99596.94;5054174;28;20104;-76
2022/02/23 03:35:13;;;;;;;6.63;1.05;;;;;;;3.87;100.00;99577.94;5054335;28;20408;-75
2022/02/23 03:37:39;;;;;;;5.38;1.00;;;;;;;3.74;100.00;99570.19;5052554;28;20021;-76
2022/02/23 03:40:05;;;;;;;6.63;1.00;;;;;;;3.86;100.00;99595.00;5054077;28;20061;-77
2022/02/23 03:42:30;;;;;;;10.23;1.20;;;;;;;3.88;100.00;99593.03;5054370;28;20021;-76
2022/02/23 03:44:55;;;;;;;4.85;0.93;;;;;;;3.88;100.00;99605.56;5054681;28;20032;-76
2022/02/23 03:47:22;;;;;;;5.75;1.05;;;;;;;3.80;100.00;99606.28;5064274;28;20108;-75
2022/02/23 03:49:47;;;;;;;4.70;0.70;;;;;;;3.81;100.00;99602.59;5072878;28;20036;-76
2022/02/23 03:52:12;;;;;;;4.25;1.00;;;;;;;3.79;100.00;99571.59;5053033;28;20028;-77
2022/02/23 03:54:38;;;;;;;3.65;0.88;;;;;;;4.09;100.00;99627.69;5092935;28;20020;-75
2022/02/23 03:57:03;;;;;;;3.88;0.90;;;;;;;4.09;100.00;99626.84;5061385;28;20028;-75
2022/02/23 03:59:29;;;;;;;7.80;1.48;;;;;;;4.02;100.00;99623.88;5064834;28;20159;-76
2022/02/23 04:01:55;;;;;;;10.40;1.63;;;;;;;4.13;100.00;99644.31;5061329;28;20025;-76
2022/02/23 04:04:21;;;;;;;5.50;1.25;;;;;;;4.08;100.00;99641.22;5079463;28;20081;-75
2022/02/23 04:06:47;;;;;;;5.30;1.25;;;;;;;3.87;100.00;99620.75;5071999;28;20032;-75
2022/02/23 04:09:13;;;;;;;6.53;1.10;;;;;;;4.01;100.00;99648.97;5086735;22;20052;-82
2022/02/23 04:11:38;;;;;;;7.38;1.00;;;;;;;3.90;100.00;99635.69;5048301;28;20093;-85
2022/02/23 04:14:05;;;;;;;3.22;0.73;;;;;;;3.98;100.00;99651.91;5053884;28;20036;-85
2022/02/23 04:16:31;;;;;;;6.57;1.13;;;;;;;3.94;100.00;99654.03;5049558;28;20112;-83
2022/02/23 04:18:56;;;;;;;4.40;1.00;;;;;;;4.05;100.00;99662.91;5056752;28;20032;-78
2022/02/23 04:21:22;;;;;;;4.88;1.15;;;;;;;3.46;100.00;99581.75;5039661;28;20017;-81
2022/02/23 04:23:47;;;;;;;6.28;0.77;;;;;;;3.35;100.00;99590.72;5039122;28;20036;-82
2022/02/23 04:26:14;;;;;;;9.48;1.35;;;;;;;3.53;100.00;99620.31;5040423;28;20021;-83
2022/02/23 04:28:39;;;;;;;8.65;1.30;;;;;;;3.95;100.00;99684.31;5042280;28;20682;-83
2022/02/23 04:31:05;;;;;;;6.78;1.52;;;;;;;3.38;100.00;99594.94;5056858;28;20017;-83
2022/02/23 04:33:30;;;;;;;5.03;1.27;;;;;;;3.60;100.00;99648.22;5036607;28;20025;-81
2022/02/23 04:35:55;;;;;;;8.50;1.10;;;;;;;3.52;100.00;99645.38;5046161;28;20113;-83
2022/02/23 04:38:21;;;;;;;9.57;1.00;;;;;;;3.56;100.00;99662.84;5041467;28;20029;-87
2022/02/23 04:40:47;;;;;;;4.15;0.90;;;;;;;3.37;100.00;99652.09;5047501;28;20089;-84
2022/02/23 04:43:14;;;;;;;3.05;0.85;;;;;;;3.25;100.00;99686.97;5047391;28;20033;-83
2022/02/23 04:45:40;;;;;;;6.30;1.17;;;;;;;2.66;100.00;99583.47;5046311;28;20029;-81
2022/02/23 04:48:06;;;;;;;3.83;1.13;;;;;;;3.33;100.00;99709.50;5060306;28;20112;-82
2022/02/23 04:50:31;;;;;;;5.97;1.33;;;;;;;2.92;100.00;99680.06;5051335;28;20021;-85
2022/02/23 04:52:57;;;;;;;4.15;1.45;;;;;;;3.05;100.00;99688.72;5057289;28;20017;-87
2022/02/23 04:55:22;;;;;;;7.32;2.47;;;;;;;3.17;100.00;99713.56;5056597;28;20018;-71
2022/02/23 04:57:48;;;;;;;11.15;2.55;;;;;;;3.34;100.00;99719.25;5030207;28;20033;-72
2022/02/23 05:00:14;;;;;;;5.07;1.33;;;;;;;3.34;100.00;99720.09;5038714;28;20048;-73
2022/02/23 05:02:39;;;;;;;8.57;1.45;;;;;;;3.02;100.00;99712.19;5036348;28;20020;-79
2022/02/23 05:05:05;;;;;;;10.15;1.45;;;;;;;3.15;100.00;99734.22;5034754;28;20021;-72
2022/02/23 05:07:31;;;;;;;7.82;1.88;;;;;;;2.82;100.00;99696.03;5032547;28;20033;-73
2022/02/23 05:09:56;;;;;;;2.45;1.10;;;;;;;2.64;100.00;99711.81;5043179;28;20421;-78
2022/02/23 05:12:24;;;;;;;3.67;1.17;;;;;;;2.62;100.00;99718.28;5064554;28;20064;-76
2022/02/23 05:14:49;;;;;;;11.15;1.60;;;;;;;2.35;100.00;99708.94;5047111;28;20021;-71
2022/02/23 05:17:15;;;;;;;3.17;1.30;;;;;;;2.19;100.00;99698.69;5032239;28;20072;-79
2022/02/23 05:19:41;;;;;;;2.83;1.45;;;;;;;2.34;100.00;99696.56;5040015;28;20025;-85
2022/02/23 05:22:07;;;;;;;12.88;1.85;;;;;;;2.62;100.00;99742.34;5035689;28;20053;-76
2022/02/23 05:24:33;;;;;;;5.05;1.60;;;;;;;2.45;100.00;99732.22;5032217;28;20057;-79
2022/02/23 05:26:59;;;;;;;6.40;1.60;;;;;;;2.47;100.00;99739.13;5029899;28;20032;-75
2022/02/23 05:29:25;;;;;;;7.97;2.10;;;;;;;2.27;100.00;99721.25;5044911;28;20030;-73
2022/02/23 05:31:52;;;;;;;7.80;2.47;;;;;;;2.39;100.00;99738.94;5028226;28;20404;-76
2022/02/23 05:34:18;;;;;;;13.80;3.10;;;;;;;2.28;100.00;99722.94;5032425;28;20028;-77
2022/02/23 05:36:43;;;;;;;7.28;2.70;;;;;;;2.25;100.00;99758.75;5039227;28;20026;-77
2022/02/23 05:39:09;;;;;;;10.60;2.20;;;;;;;1.98;100.00;99744.03;5014264;28;20030;-77
2022/02/23 05:41:35;;;;;;;7.05;2.17;;;;;;;1.94;100.00;99742.59;5045195;28;20025;-78
2022/02/23 05:44:01;;;;;;;9.02;2.58;;;;;;;1.82;100.00;99732.91;5043466;28;20033;-79
2022/02/23 05:46:26;;;;;;;10.85;1.92;;;;;;;2.04;100.00;99752.50;5043342;28;20036;-80
2022/02/23 05:48:52;;;;;;;7.05;2.30;;;;;;;2.10;100.00;99776.03;5046425;28;20029;-78
2022/02/23 05:51:35;;;;;;;6.40;2.03;;;;;;;2.22;100.00;99771.50;5029923;28;20344;-85
2022/02/23 05:54:01;;;;;;;7.63;2.15;;;;;;;2.34;100.00;99784.69;5057213;28;20405;-78
2022/02/23 05:56:28;;;;;;;11.52;2.42;;;;;;;2.15;100.00;99737.31;5040566;28;20026;-75
2022/02/23 05:58:54;;;;;;;10.48;2.50;;;;;;;2.36;100.00;99779.25;5031050;28;20583;-79
2022/02/23 06:01:20;;;;;;;4.95;2.13;;;;;;;2.37;100.00;99749.72;5033498;28;20029;-75
2022/02/23 06:03:45;;;;;;;8.50;2.40;;;;;;;2.52;100.00;99784.16;5035457;28;20033;-75
2022/02/23 06:06:11;;;;;;;12.52;3.05;;;;;;;2.43;100.00;99807.13;5030553;28;20025;-73
2022/02/23 06:08:37;;;;;;;6.90;2.22;;;;;;;2.54;100.00;99799.09;5030686;28;20027;-73
2022/02/23 06:11:04;;;;;;;6.35;2.13;;;;;;;2.51;100.00;99801.13;5030889;28;20605;-74
2022/02/23 06:13:29;;;;;;;11.25;2.40;;;;;;;2.46;100.00;99809.53;5029622;28;20376;-73
2022/02/23 06:15:55;;;;;;;6.65;3.15;;;;;;;2.45;100.00;99802.50;5029487;28;20021;-76
2022/02/23 06:18:20;;;;;;;9.38;3.15;;;;;;;2.48;100.00;99828.94;5024292;28;20030;-78
2022/02/23 06:20:45;;;;;;;12.02;3.05;;;;;;;2.42;100.00;99838.31;5033536;28;20030;-76
2022/02/23 06:23:10;;;;;;;8.45;2.80;;;;;;;2.36;100.00;99814.78;5045427;28;20105;-75
2022/02/23 06:25:36;;;;;;;7.90;2.30;;;;;;;2.59;100.00;99842.28;5026425;28;20056;-75
2022/02/23 06:28:02;;;;;;;6.15;1.70;;;;;;;2.36;100.00;99819.28;5027485;28;20033;-75
2022/02/23 06:30:28;;;;;;;7.80;2.20;;;;;;;2.38;100.00;99811.97;5027841;28;20025;-75
2022/02/23 06:32:54;;;;;;;5.22;2.20;;;;;;;2.66;100.00;99858.66;5030155;28;20025;-72
2022/02/23 06:35:20;;;;;;;7.75;2.10;;;;;;;2.47;100.00;99837.94;5030861;28;20080;-72
2022/02/23 06:37:45;;;;;;;11.10;2.38;;;;;;;2.68;100.00;99862.03;5030625;28;20035;-74
2022/02/23 06:40:12;;;;;;;5.55;2.13;;;;;;;2.68;100.00;99838.00;5030957;28;20028;-79
2022/02/23 06:42:38;;;;;;;5.07;1.88;;;;;;;2.81;100.00;99860.03;5020331;28;20029;-78
2022/02/23 06:45:04;;;;;;;10.68;2.35;;;;;;;2.88;100.00;99851.50;5025099;28;20030;-74
2022/02/23 06:47:30;;;;;;;3.53;1.98;;;;;;;2.89;100.00;99845.22;5031367;28;20049;-75
2022/02/23 06:49:55;;;;;;;8.10;1.98;;;;;;;3.09;100.00;99873.75;5032683;28;20064;-74
2022/02/23 06:52:22;;;;;;;5.90;2.50;;;;;;;3.16;100.00;99884.81;5029890;28;20109;-75
2022/02/23 06:54:48;;;;;;;10.55;2.90;;;;;;;3.01;100.00;99844.16;5036102;28;20448;-79
2022/02/23 06:57:14;;;;;;;8.13;2.83;;;;;;;3.16;100.00;99856.22;5030497;28;20108;-79
2022/02/23 06:59:40;;;;;;;7.68;2.10;;;;;;;3.26;100.00;99869.69;5029050;28;20064;-76
2022/02/23 07:02:06;;;;;;;4.20;1.88;;;;;;;3.10;100.00;99848.75;5033802;28;20496;-73
2022/02/23 07:04:32;;;;;;;8.15;2.10;;;;;;;3.38;100.00;99891.84;5033576;28;20108;-71
2022/02/23 07:06:57;;;;;;;8.18;2.13;;;;;;;3.45;100.00;99893.03;5034110;28;20503;-72
2022/02/23 07:09:22;;;;;;;6.43;1.60;;;;;;;3.35;100.00;99884.91;5033302;28;20036;-74
2022/02/23 07:11:48;;;;;;;5.38;1.55;;;;;;;3.53;100.00;99903.06;5047819;28;20441;-76
2022/02/23 07:14:14;;;;;;;4.20;1.60;;;;;;;3.60;100.00;99872.13;5035723;28;20027;-74
2022/02/23 07:16:39;;;;;;;4.80;1.60;;;;;;;3.69;100.00;99903.44;5032954;28;20033;-76
2022/02/23 07:19:06;;;;;;;11.35;1.63;;;;;;;3.96;100.00;99916.28;5049042;28;20036;-76
2022/02/23 07:21:33;;;;;;;4.68;1.80;;;;;;;3.69;100.00;99858.81;5036565;28;20045;-77
2022/02/23 07:23:59;;;;;;;7.50;1.70;;;;;;;4.21;100.00;99898.06;5027135;28;20018;-75
2022/02/23 07:26:25;;;;;;;5.55;2.58;;;;;;;5.68;96.06;99888.09;5029088;28;20091;-69
2022/02/23 07:28:50;;;;;;;9.93;2.40;;;;;;;6.30;94.33;99911.81;5034352;28;20022;-70
2022/02/23 07:31:19;;;;;;;4.22;2.05;;;;;;;6.34;91.29;99916.75;5034234;28;20032;-71
2022/02/23 07:33:46;;;;;;;3.70;1.73;;;;;;;6.24;90.83;99917.78;5035832;28;20025;-70
2022/02/23 07:36:12;;;;;;;5.15;2.47;;;;;;;6.09;91.41;99895.91;5030289;28;20037;-70
2022/02/23 07:38:38;;;;;;;6.00;2.10;;;;;;;6.69;90.22;99909.75;5027658;28;20745;-70
2022/02/23 07:41:06;;;;;;;3.50;1.77;;;;;;;9.61;78.26;99898.13;5030668;28;20144;-73
2022/02/23 07:43:33;;;;;;;10.25;2.88;;;;;;;12.38;61.84;99912.88;5045450;28;20052;-66
2022/02/23 07:45:59;;;;;;;9.02;3.53;;;;;;;13.48;56.13;99909.97;5027693;28;20080;-75
2022/02/23 07:48:25;;;;;;;5.15;2.80;;;;;;;14.39;54.10;99893.69;5033924;28;20022;-75
2022/02/23 07:50:50;;;;;;;6.50;1.80;;;;;;;15.11;51.22;99907.81;5032830;28;20365;-76
2022/02/23 07:53:15;;;;;;;5.13;1.63;;;;;;;16.28;48.23;99903.69;5033746;28;20480;-66
2022/02/23 07:55:41;;;;;;;4.93;1.40;;;;;;;15.92;48.29;99885.88;5033657;28;20871;-74
2022/02/23 07:58:07;;;;;;;8.43;1.52;;;;;;;16.79;46.24;99900.19;5033004;28;20049;-74
2022/02/23 08:00:32;;;;;;;9.88;2.10;;;;;;;17.19;45.45;99930.06;5033358;28;20060;-69
2022/02/23 08:02:58;;;;;;;8.43;2.38;;;;;;;18.27;43.44;99923.56;5033908;28;20029;-68
2022/02/23 08:05:24;;;;;;;6.00;2.85;;;;;;;18.34;42.38;99923.50;5025584;28;20025;-67
2022/02/23 08:07:55;;;;;;;9.38;4.40;;;;;;;18.31;41.40;99915.69;5032852;28;20022;-69
2022/02/23 08:10:21;;;;;;;11.00;4.30;;;;;;;19.58;39.91;99903.97;5031306;28;20064;-70
2022/02/23 08:12:47;;;;;;;11.77;4.18;;;;;;;18.74;41.45;99917.56;5033242;28;20100;-69
2022/02/23 08:20:41;;;;;;;8.65;3.08;;;;;;;17.81;41.45;99889.22;5031571;28;20047;-67
2022/02/23 08:23:07;;;;;;;6.88;2.80;;;;;;;18.45;40.85;99913.69;5028555;28;20026;-67
2022/02/23 08:25:33;;;;;;;9.20;3.15;;;;;;;17.66;43.39;99897.75;5033257;28;20022;-70
2022/02/23 08:27:58;;;;;;;7.78;2.75;;;;;;;18.54;41.05;99909.56;5032237;28;20034;-68
2022/02/23 08:30:24;;;;;;;9.23;2.78;;;;;;;18.64;40.43;99901.63;5032019;28;20111;-65
2022/02/23 08:32:49;;;;;;;5.82;2.03;;;;;;;19.57;39.79;99905.03;5023233;28;20509;-66
2022/02/23 08:35:15;;;;;;;7.88;2.30;;;;;;;19.61;39.65;99884.28;5024849;28;20021;-67
2022/02/23 08:37:40;;;;;;;7.20;2.42;;;;;;;19.36;39.51;99909.16;5032582;28;20401;-66
2022/02/23 08:40:07;;;;;;;8.65;2.88;;;;;;;19.12;39.85;99911.81;5031565;28;20468;-69
2022/02/23 08:42:32;;;;;;;7.20;2.88;;;;;;;18.93;40.33;99907.44;5024603;28;20029;-68
2022/02/23 08:44:57;;;;;;;9.50;2.40;;;;;;;18.88;40.90;99894.41;5029486;28;20021;-69
2022/02/23 08:47:25;;;;;;;11.23;2.60;;;;;;;19.41;40.53;99901.03;5029996;28;20033;-68
2022/02/23 08:49:51;;;;;;;9.48;2.22;;;;;;;19.05;40.73;99908.34;5026454;28;20025;-71
2022/02/23 08:52:17;;;;;;;8.57;2.83;;;;;;;19.59;39.05;99914.69;5028251;28;20030;-69
2022/02/23 08:54:42;;;;;;;12.48;2.65;;;;;;;18.10;40.83;99919.72;5030115;28;20033;-69
2022/02/23 08:57:09;;;;;;;8.52;2.55;;;;;;;17.50;42.57;99896.41;5026838;28;20020;-75
2022/02/23 08:59:35;;;;;;;7.75;2.00;;;;;;;17.30;43.83;99910.19;5033849;28;20122;-73
2022/02/23 09:02:00;;;;;;;12.80;2.65;;;;;;;16.15;47.08;99918.19;5029147;28;20030;-74
2022/02/23 09:04:25;;;;;;;10.50;2.72;;;;;;;17.18;43.16;99902.91;5032283;28;20033;-73
2022/02/23 09:06:51;;;;;;;9.82;2.97;;;;;;;16.92;44.45;99912.09;5032529;28;20028;-72
2022/02/23 09:09:17;;;;;;;8.35;2.40;;;;;;;17.65;43.36;99906.16;5032164;28;20476;-72
2022/02/23 09:11:47;;;;;;;9.35;2.58;;;;;;;18.37;41.69;99923.03;5051621;28;20120;-74
2022/02/23 09:14:13;;;;;;;6.47;2.30;;;;;;;19.22;40.89;99906.59;5033835;28;20473;-72
2022/02/23 09:16:39;;;;;;;6.95;2.20;;;;;;;19.17;40.48;99894.66;5030606;28;20029;-70
2022/02/23 09:19:05;;;;;;;6.13;2.00;;;;;;;18.94;40.02;99896.25;5031999;28;20137;-69
2022/02/23 09:21:31;;;;;;;12.77;2.35;;;;;;;19.49;38.70;99909.81;5032860;28;20025;-72
2022/02/23 09:23:59;;;;;;;5.65;2.08;;;;;;;20.10;37.80;99917.91;5031702;28;20026;-69
2022/02/23 09:26:24;;;;;;;9.10;2.33;;;;;;;19.74;38.30;99916.22;5033015;28;20052;-73
2022/02/23 09:28:52;;;;;;;7.50;2.70;;;;;;;18.81;40.36;99897.25;5023742;28;20026;-73
2022/02/23 09:31:18;;;;;;;9.20;1.83;;;;;;;20.38;36.65;99897.94;5046192;28;20018;-75
2022/02/23 09:33:44;;;;;;;6.93;1.95;;;;;;;19.08;38.90;99924.31;5031114;28;20021;-74
2022/02/23 09:36:10;;;;;;;7.18;1.90;;;;;;;19.70;37.58;99904.84;5031169;28;20029;-74
2022/02/23 09:38:35;;;;;;;6.38;1.58;;;;;;;21.06;35.45;99926.63;5031218;28;20097;-73
2022/02/23 09:41:09;;;;;;;8.68;1.48;;;;;;;20.34;36.51;99922.31;5032117;28;20448;-75
2022/02/23 09:43:35;;;;;;;12.30;1.60;;;;;;;18.96;39.42;99920.69;5032172;28;20025;-72
2022/02/23 09:46:01;;;;;;;6.03;1.45;;;;;;;20.87;35.50;99919.63;5029540;28;20127;-75
2022/02/23 09:48:29;;;;;;;7.03;1.30;;;;;;;20.43;35.99;99909.03;5038067;28;20994;-73
2022/02/23 09:50:55;;;;;;;3.97;1.35;;;;;;;21.41;34.02;99914.66;5030503;28;20045;-76
2022/02/23 09:53:22;;;;;;;7.65;1.60;;;;;;;21.47;34.11;99919.19;5029745;28;20399;-70
2022/02/23 09:55:51;;;;;;;8.20;1.63;;;;;;;21.85;33.74;99914.84;5032639;28;20025;-70
2022/02/23 09:58:17;;;;;;;;;;;;;;;20.53;34.59;99920.25;5039893;28;20377;-70
2022/02/23 10:00:44;;;;;;;4.70;1.08;;;;;;;22.22;32.38;99914.41;5031640;28;19924;-70
2022/02/23 10:03:09;;;;;;;4.90;1.20;;;;;;;21.61;32.69;99916.94;5031089;28;20555;-71
2022/02/23 10:05:46;;;;;;;6.43;1.40;;;;;;;21.27;32.85;99913.25;5029564;28;20021;-71
2022/02/23 10:08:12;;;;;;;7.25;1.70;;;;;;;21.93;32.68;99910.84;5031029;28;20096;-71
2022/02/23 10:10:39;;;;;;;5.35;1.30;;;;;;;21.68;32.58;99901.09;5031610;28;20124;-70
2022/02/23 10:13:07;;;;;;;5.75;0.88;;;;;;;21.09;32.68;99919.78;5031951;28;20477;-71
2022/02/23 10:15:43;;;;;;;6.57;1.27;;;;;;;21.28;32.71;99914.94;5032030;28;20060;-71
2022/02/23 10:18:11;;;;;;;5.00;1.27;;;;;;;21.00;32.49;99922.09;5035074;28;20021;-71
2022/02/23 10:20:39;;;;;;;4.45;1.17;;;;;;;21.40;33.54;99913.81;5016015;28;20428;-71
2022/02/23 10:23:18;;;;;;;7.95;1.52;;;;;;;21.66;33.16;99915.09;5031008;28;20100;-71
2022/02/23 10:25:49;;;;;;;;;;;;;;;22.22;31.91;99911.63;5031687;28;20075;-71
2022/02/23 10:28:20;;;;;;;5.00;1.27;;;;;;;22.60;31.47;99896.16;5029402;28;20427;-70
2022/02/23 10:30:56;;;;;;;6.28;1.38;;;;;;;20.90;34.77;99900.72;5028055;28;20028;-72
2022/02/23 10:33:23;;;;;;;6.10;1.52;;;;;;;20.56;35.66;99906.06;5030874;28;20120;-72
2022/02/23 10:35:49;;;;;;;6.05;1.63;;;;;;;22.50;31.86;99891.34;5031273;28;20029;-72
2022/02/23 10:38:27;;;;;;;9.43;1.33;;;;;;;21.00;32.91;99897.34;5035520;28;20102;-72
2022/02/23 10:40:54;;;;;;;5.95;1.50;;;;;;;21.22;33.94;99889.22;5033777;28;20112;-72
2022/02/23 10:43:24;;;;;;;6.05;1.55;;;;;;;22.31;33.05;99891.63;5029491;28;20029;-72
2022/02/23 10:46:11;;;;;;;6.28;1.48;;;;;;;22.25;32.26;99892.66;5022709;28;20100;-72
2022/02/23 10:48:52;;;;;;;3.92;1.10;;;;;;;21.91;33.00;99891.00;5034394;28;20044;-73
2022/02/23 10:51:29;;;;;;;6.72;1.48;;;;;;;22.14;32.15;99898.22;5033821;28;20765;-70
2022/02/23 10:54:03;;;;;;;5.43;1.35;;;;;;;21.98;31.85;99883.38;5033466;28;20029;-70
2022/02/23 10:56:32;;;;;;;4.55;1.20;;;;;;;21.92;32.76;99868.69;5033794;28;20112;-69
2022/02/23 10:59:08;;;;;;;6.93;1.77;;;;;;;21.84;32.44;99877.38;5031117;28;20029;-71
2022/02/23 11:01:34;;;;;;;8.40;1.58;;;;;;;22.05;32.26;99876.59;5030945;28;20810;-71
2022/02/23 11:04:00;;;;;;;5.75;1.38;;;;;;;21.55;32.24;99882.13;5040186;28;20032;-71
2022/02/23 11:06:26;;;;;;;4.03;1.33;;;;;;;21.63;32.61;99877.03;5037333;28;20029;-71
2022/02/23 11:08:55;;;;;;;4.88;1.45;;;;;;;21.75;32.71;99868.72;5031953;28;20091;-71
2022/02/23 11:11:22;;;;;;;3.60;1.20;;;;;;;20.38;34.78;99889.69;5023650;28;20043;-71
2022/02/23 11:13:48;;;;;;;8.45;1.85;;;;;;;20.97;33.13;99875.81;5027553;28;20072;-71
2022/02/23 11:16:15;;;;;;;4.03;1.50;;;;;;;21.07;33.21;99875.19;5016815;28;20030;-71
2022/02/23 11:18:42;;;;;;;3.67;1.38;;;;;;;21.11;33.72;99879.94;5031361;28;20014;-72
2022/02/23 11:21:11;;;;;;;4.82;1.33;;;;;;;19.22;36.00;99878.34;5033401;28;20033;-68
2022/02/23 11:23:38;;;;;;;8.57;1.30;;;;;;;17.63;38.50;99873.56;5034888;28;20467;-69
2022/02/23 11:26:05;;;;;;;4.93;1.20;;;;;;;17.99;38.93;99852.81;5023366;28;20056;-70
2022/02/23 11:28:34;;;;;;;8.48;1.10;;;;;;;19.76;36.18;99862.72;5035104;28;20040;-71
2022/02/23 11:31:13;;;;;;;4.45;1.10;;;;;;;21.53;32.16;99854.84;5035116;28;20026;-68
2022/02/23 11:33:52;;;;;;;6.38;1.42;;;;;;;22.92;31.31;99846.59;5039307;28;20053;-70
2022/02/23 11:36:32;;;;;;;6.15;1.67;;;;;;;22.40;31.25;99839.66;5037927;28;20438;-69
2022/02/23 11:39:07;;;;;;;4.90;1.30;;;;;;;22.27;32.92;99842.78;5049092;28;20108;-69
2022/02/23 11:41:38;;;;;;;5.97;1.42;;;;;;;22.27;31.65;99817.97;5028418;28;20074;-69
2022/02/23 11:44:12;;;;;;;7.07;1.75;;;;;;;21.85;31.57;99835.81;5045373;28;20029;-69
2022/02/23 11:46:50;;;;;;;5.03;1.25;;;;;;;20.27;35.56;99839.16;5024781;28;20833;-70
2022/02/23 11:49:15;;;;;;;7.80;1.90;;;;;;;20.97;33.48;99821.63;5030439;28;20026;-69
2022/02/23 11:51:42;;;;;;;6.40;1.67;;;;;;;21.60;32.56;99802.38;5033019;28;20060;-70
2022/02/23 11:54:08;;;;;;;4.13;1.63;;;;;;;22.00;31.92;99806.81;5032606;28;20021;-70
2022/02/23 11:56:45;;;;;;;5.13;1.50;;;;;;;22.33;31.07;99810.59;5032799;28;20036;-72
2022/02/23 11:59:50;;;;;;;4.50;1.20;;;;;;;24.12;29.21;99813.13;5030238;28;20762;-73
2022/02/23 12:02:16;;;;;;;3.97;1.52;;;;;;;24.43;29.31;99802.22;5029572;28;20033;-70
2022/02/23 12:04:46;;;;;;;4.75;1.40;;;;;;;22.71;29.96;99806.91;5029271;28;20174;-69
2022/02/23 12:07:12;;;;;;;4.47;1.50;;;;;;;22.24;30.33;99808.31;5031647;28;20033;-68
2022/02/23 12:09:49;;;;;;;3.78;1.27;;;;;;;22.84;29.72;99803.75;5036703;28;20040;-68
2022/02/23 12:12:38;;;;;;;4.60;1.30;;;;;;;22.64;29.73;99800.78;5028824;28;20400;-69
2022/02/23 12:15:11;;;;;;;4.57;1.52;;;;;;;21.72;30.17;99782.97;5029335;28;20117;-69
2022/02/23 12:18:20;;;;;;;5.55;2.00;;;;;;;19.46;33.77;99796.88;5029483;28;20039;-70
2022/02/23 12:20:47;;;;;;;7.18;1.60;;;;;;;17.55;37.55;99816.34;5028826;28;20072;-69
2022/02/23 12:23:18;;;;;;;8.70;1.65;;;;;;;16.59;39.93;99810.06;5029516;28;20029;-69
2022/02/23 12:26:18;;;;;;;4.78;1.42;;;;;;;18.29;37.79;99803.63;5029790;28;20033;-69
2022/02/23 12:28:47;;;;;;;4.68;1.30;;;;;;;20.38;34.13;99795.41;5025903;28;20037;-69
2022/02/23 12:31:20;;;;;;;;;;;;;;;20.55;32.93;99790.84;5033153;28;20107;-67
2022/02/23 12:33:55;;;;;;;3.63;1.50;;;;;;;19.61;34.69;99777.22;5028926;28;20007;-67
2022/02/23 12:36:37;;;;;;;6.18;1.33;;;;;;;20.93;33.04;99753.59;5026780;28;20068;-67
2022/02/23 12:39:07;;;;;;;5.63;1.42;;;;;;;21.89;31.37;99773.59;5027909;28;20079;-73
2022/02/23 12:41:34;;;;;;;5.28;1.42;;;;;;;21.91;30.29;99770.59;5025864;28;20029;-68
2022/02/23 12:44:09;;;;;;;6.20;1.45;;;;;;;19.63;33.62;99781.38;5024541;28;20032;-68
2022/02/23 12:46:44;;;;;;;5.30;1.42;;;;;;;17.98;37.13;99776.41;5011049;28;20026;-69
2022/02/23 12:49:10;;;;;;;5.50;1.27;;;;;;;16.69;39.30;99774.06;5035627;28;20029;-67
2022/02/23 12:51:37;;;;;;;6.80;1.58;;;;;;;16.46;39.91;99771.88;5032984;28;20059;-67
2022/02/23 12:54:08;;;;;;;5.18;1.48;;;;;;;16.38;40.56;99767.50;5032613;28;20070;-67
2022/02/23 12:56:45;;;;;;;6.55;1.40;;;;;;;17.38;38.91;99739.50;5018463;28;20433;-67
2022/02/23 12:59:16;;;;;;;8.90;1.70;;;;;;;19.59;35.03;99746.41;5035167;28;20029;-67
2022/02/23 13:01:52;;;;;;;7.18;1.75;;;;;;;21.94;30.97;99714.97;5027631;28;20025;-67